createdAt,value
2017-12-23T05:00:33.468Z,8.34
2017-12-23T05:00:58.943Z,8.33
2017-12-23T05:01:24.429Z,8.31
2017-12-23T05:01:49.960Z,8.36
2017-12-23T05:02:15.491Z,8.33
2017-12-23T05:02:41.052Z,8.33
2017-12-23T05:03:06.515Z,8.41
2017-12-23T05:03:32.016Z,8.28
2017-12-23T05:03:57.495Z,8.46
2017-12-23T05:04:22.999Z,8.41
2017-12-23T05:04:48.548Z,8.38
2017-12-23T05:05:14.035Z,8.38
2017-12-23T05:05:39.538Z,8.38
2017-12-23T05:06:37.570Z,8.36
2017-12-23T05:07:03.064Z,8.38
2017-12-23T05:07:28.548Z,8.44
2017-12-23T05:07:54.042Z,8.41
2017-12-23T05:08:19.522Z,8.34
2017-12-23T05:08:45.024Z,8.41
2017-12-23T05:09:10.488Z,8.41
2017-12-23T05:09:35.968Z,8.34
2017-12-23T05:10:01.490Z,8.37
2017-12-23T05:10:26.979Z,8.44
2017-12-23T05:10:52.540Z,8.38
2017-12-23T05:11:18.061Z,8.41
2017-12-23T05:11:43.558Z,8.53
2017-12-23T05:12:09.044Z,8.38
2017-12-23T05:12:34.579Z,8.38
2017-12-23T05:13:00.075Z,8.36
2017-12-23T05:13:25.587Z,8.44
2017-12-23T05:13:51.094Z,8.34
2017-12-23T05:14:16.606Z,8.46
2017-12-23T05:14:42.087Z,8.41
2017-12-23T05:15:07.614Z,8.41
2017-12-23T05:15:33.088Z,8.41
2017-12-23T05:16:31.086Z,8.41
2017-12-23T05:16:56.589Z,8.44
2017-12-23T05:17:22.077Z,8.38
2017-12-23T05:17:47.590Z,8.41
2017-12-23T05:18:13.057Z,8.38
2017-12-23T05:18:38.565Z,8.41
2017-12-23T05:19:04.046Z,8.42
2017-12-23T05:19:29.527Z,8.45
2017-12-23T05:19:55.031Z,8.52
2017-12-23T05:20:20.532Z,8.37
2017-12-23T05:20:46.005Z,8.36
2017-12-23T05:21:11.526Z,8.42
2017-12-23T05:21:37.012Z,8.38
2017-12-23T05:22:02.468Z,8.37
2017-12-23T05:23:00.477Z,8.45
2017-12-23T05:23:26.005Z,8.44
2017-12-23T05:23:51.501Z,8.41
2017-12-23T05:24:16.994Z,8.52
2017-12-23T05:24:42.474Z,8.38
2017-12-23T05:25:07.970Z,8.36
2017-12-23T05:25:33.467Z,8.38
2017-12-23T05:26:36.588Z,8.46
2017-12-23T05:27:02.080Z,8.34
2017-12-23T05:27:27.563Z,8.36
2017-12-23T05:27:53.048Z,8.37
2017-12-23T05:28:18.579Z,8.36
2017-12-23T05:28:44.079Z,8.38
2017-12-23T05:29:09.554Z,8.42
2017-12-23T05:29:35.060Z,8.38
2017-12-23T05:30:00.530Z,8.41
2017-12-23T05:30:26.027Z,8.37
2017-12-23T05:30:51.514Z,8.38
2017-12-23T05:31:17.036Z,8.36
2017-12-23T05:31:42.544Z,8.41
2017-12-23T05:32:08.030Z,8.44
2017-12-23T05:32:33.537Z,8.46
2017-12-23T05:32:58.995Z,8.42
2017-12-23T05:33:24.472Z,8.48
2017-12-23T05:33:49.979Z,8.33
2017-12-23T05:34:15.467Z,8.37
2017-12-23T05:34:41.012Z,8.31
2017-12-23T05:35:06.508Z,8.38
2017-12-23T05:35:32.013Z,8.45
2017-12-23T05:35:57.497Z,8.41
2017-12-23T05:36:23.000Z,8.38
2017-12-23T05:36:48.501Z,8.36
2017-12-23T05:37:14.023Z,8.49
2017-12-23T05:37:39.522Z,8.36
2017-12-23T05:38:05.030Z,8.37
2017-12-23T05:38:30.546Z,8.41
2017-12-23T05:38:56.016Z,8.41
2017-12-23T05:39:21.489Z,8.41
2017-12-23T05:39:46.950Z,8.46
2017-12-23T05:40:12.476Z,8.41
2017-12-23T05:40:37.977Z,8.49
2017-12-23T05:41:03.447Z,8.51
2017-12-23T05:41:28.923Z,8.48
2017-12-23T05:41:54.416Z,8.41
2017-12-23T05:42:19.922Z,8.42
2017-12-23T05:42:45.462Z,8.41
2017-12-23T05:43:10.950Z,8.45
2017-12-23T05:43:36.426Z,8.41
2017-12-23T05:44:01.970Z,8.49
2017-12-23T05:44:27.461Z,8.49
2017-12-23T05:44:52.954Z,8.41
2017-12-23T05:45:18.456Z,8.34
2017-12-23T05:45:43.997Z,8.48
2017-12-23T05:46:09.499Z,8.51
2017-12-23T05:46:34.965Z,8.41
2017-12-23T05:47:00.431Z,8.51
2017-12-23T05:47:25.902Z,8.31
2017-12-23T05:47:51.392Z,8.36
2017-12-23T05:48:16.883Z,8.48
2017-12-23T05:48:42.429Z,8.37
2017-12-23T05:49:07.918Z,8.38
2017-12-23T05:49:33.474Z,8.38
2017-12-23T05:49:58.955Z,8.49
2017-12-23T05:50:24.436Z,8.41
2017-12-23T05:50:49.888Z,8.37
2017-12-23T05:51:15.384Z,8.38
2017-12-23T05:51:40.879Z,8.38
2017-12-23T05:52:06.366Z,8.45
2017-12-23T05:52:31.845Z,8.42
2017-12-23T05:52:57.353Z,8.34
2017-12-23T05:53:22.848Z,8.48
2017-12-23T05:53:48.400Z,8.36
2017-12-23T05:54:13.849Z,8.45
2017-12-23T05:54:39.341Z,8.42
2017-12-23T05:55:04.848Z,8.37
2017-12-23T05:55:30.332Z,8.38
2017-12-23T05:55:55.889Z,8.42
2017-12-23T05:56:21.386Z,8.42
2017-12-23T05:56:46.872Z,8.48
2017-12-23T05:57:12.351Z,8.36
2017-12-23T05:57:37.849Z,8.45
2017-12-23T05:58:03.380Z,8.51
2017-12-23T05:58:28.886Z,8.41
2017-12-23T05:58:54.377Z,8.41
2017-12-23T05:59:19.858Z,8.45
2017-12-23T05:59:45.349Z,8.31
2017-12-23T06:00:10.868Z,8.44
2017-12-23T06:00:36.370Z,8.37
2017-12-23T06:01:01.860Z,8.51
2017-12-23T06:01:27.396Z,8.38
2017-12-23T06:01:52.859Z,8.34
2017-12-23T06:02:18.401Z,8.31
2017-12-23T06:02:43.909Z,8.38
2017-12-23T06:03:09.405Z,8.51
2017-12-23T06:04:07.894Z,8.3
2017-12-23T06:04:33.354Z,8.34
2017-12-23T06:04:58.852Z,8.37
2017-12-23T06:05:24.338Z,8.41
2017-12-23T06:05:49.866Z,8.34
2017-12-23T06:06:43.253Z,8.34
2017-12-23T06:07:08.786Z,8.37
2017-12-23T06:07:34.273Z,8.44
2017-12-23T06:07:59.782Z,8.36
2017-12-23T06:08:25.267Z,8.3
2017-12-23T06:08:50.836Z,8.42
2017-12-23T06:09:16.351Z,8.36
2017-12-23T06:09:41.801Z,8.34
2017-12-23T06:10:07.290Z,8.34
2017-12-23T06:10:32.816Z,8.37
2017-12-23T06:10:58.258Z,8.36
2017-12-23T06:11:23.751Z,8.37
2017-12-23T06:11:49.248Z,8.31
2017-12-23T06:12:14.778Z,8.34
2017-12-23T06:12:40.276Z,8.36
2017-12-23T06:13:05.772Z,8.3
2017-12-23T06:13:31.255Z,8.38
2017-12-23T06:13:56.844Z,8.36
2017-12-23T06:14:22.278Z,8.36
2017-12-23T06:15:30.956Z,8.36
2017-12-23T06:15:56.451Z,8.31
2017-12-23T06:16:21.955Z,8.34
2017-12-23T06:16:47.475Z,8.26
2017-12-23T06:17:12.957Z,8.34
2017-12-23T06:17:38.435Z,8.3
2017-12-23T06:18:03.934Z,8.31
2017-12-23T06:18:29.458Z,8.33
2017-12-23T06:18:54.932Z,8.37
2017-12-23T06:19:20.416Z,8.34
2017-12-23T06:19:45.922Z,8.27
2017-12-23T06:20:11.418Z,8.23
2017-12-23T06:20:36.875Z,8.33
2017-12-23T06:21:02.413Z,8.24
2017-12-23T06:21:27.927Z,8.27
2017-12-23T06:21:53.400Z,8.33
2017-12-23T06:22:18.911Z,8.24
2017-12-23T06:22:44.398Z,8.2
2017-12-23T06:23:09.896Z,8.23
2017-12-23T06:23:35.404Z,8.26
2017-12-23T06:24:00.909Z,8.2
2017-12-23T06:24:26.415Z,8.24
2017-12-23T06:24:51.899Z,8.3
2017-12-23T06:25:17.444Z,8.33
2017-12-23T06:25:43.020Z,8.27
2017-12-23T06:26:08.491Z,8.26
2017-12-23T06:26:56.877Z,8.19
2017-12-23T06:27:22.288Z,8.19
2017-12-23T06:27:47.780Z,8.23
2017-12-23T06:28:13.257Z,8.31
2017-12-23T06:28:38.770Z,8.27
2017-12-23T06:29:04.235Z,8.24
2017-12-23T06:30:02.737Z,8.19
2017-12-23T06:30:28.219Z,8.28
2017-12-23T06:30:53.716Z,8.18
2017-12-23T06:31:19.176Z,8.2
2017-12-23T06:31:44.645Z,8.24
2017-12-23T06:32:10.130Z,8.18
2017-12-23T06:32:35.645Z,8.27
2017-12-23T06:33:01.161Z,8.24
2017-12-23T06:33:26.662Z,8.3
2017-12-23T06:33:52.151Z,8.3
2017-12-23T06:34:17.625Z,8.26
2017-12-23T06:34:43.166Z,8.24
2017-12-23T06:35:08.675Z,8.27
2017-12-23T06:35:34.148Z,8.23
2017-12-23T06:36:42.385Z,8.19
2017-12-23T06:37:07.907Z,8.24
2017-12-23T06:37:33.397Z,8.28
2017-12-23T06:37:58.890Z,8.2
2017-12-23T06:38:24.388Z,8.19
2017-12-23T06:38:49.849Z,8.23
2017-12-23T06:39:15.314Z,8.2
2017-12-23T06:39:40.835Z,8.24
2017-12-23T06:40:06.333Z,8.2
2017-12-23T06:40:31.827Z,8.23
2017-12-23T06:40:57.301Z,8.18
2017-12-23T06:41:22.793Z,8.23
2017-12-23T06:41:48.295Z,8.23
2017-12-23T06:42:13.821Z,8.24
2017-12-23T06:42:39.326Z,8.2
2017-12-23T06:43:04.815Z,8.19
2017-12-23T06:43:30.290Z,8.19
2017-12-23T06:43:55.762Z,8.23
2017-12-23T06:44:21.233Z,8.19
2017-12-23T06:44:46.760Z,8.23
2017-12-23T06:45:12.225Z,8.24
2017-12-23T06:45:37.717Z,8.19
2017-12-23T06:46:35.764Z,8.23
2017-12-23T06:47:01.236Z,8.23
2017-12-23T06:47:26.734Z,8.19
2017-12-23T06:47:52.239Z,8.19
2017-12-23T06:48:17.730Z,8.2
2017-12-23T06:48:43.186Z,8.19
2017-12-23T06:49:08.673Z,8.28
2017-12-23T06:49:34.187Z,8.2
2017-12-23T06:49:59.659Z,8.18
2017-12-23T06:50:58.149Z,8.26
2017-12-23T06:51:23.634Z,8.18
2017-12-23T06:51:49.116Z,8.16
2017-12-23T06:52:14.604Z,8.15
2017-12-23T06:52:40.100Z,8.26
2017-12-23T06:53:05.568Z,8.24
2017-12-23T06:53:31.074Z,8.23
2017-12-23T06:53:56.580Z,8.19
2017-12-23T06:54:22.060Z,8.2
2017-12-23T06:54:47.544Z,8.16
2017-12-23T06:55:13.009Z,8.15
2017-12-23T06:55:38.480Z,8.19
2017-12-23T06:56:03.953Z,8.23
2017-12-23T06:56:29.457Z,8.24
2017-12-23T06:56:54.978Z,8.18
2017-12-23T06:57:20.474Z,8.15
2017-12-23T06:57:45.969Z,8.13
2017-12-23T06:58:11.443Z,8.13
2017-12-23T06:58:36.909Z,8.13
2017-12-23T06:59:02.440Z,8.12
2017-12-23T06:59:27.953Z,8.18
2017-12-23T06:59:53.406Z,8.19
2017-12-23T07:00:18.908Z,8.16
2017-12-23T07:00:44.407Z,8.19
2017-12-23T07:01:09.945Z,8.2
2017-12-23T07:01:35.428Z,8.15
2017-12-23T07:02:00.967Z,8.19
2017-12-23T07:02:26.479Z,8.16
2017-12-23T07:02:51.946Z,8.12
2017-12-23T07:03:17.429Z,8.19
2017-12-23T07:03:42.920Z,8.2
2017-12-23T07:04:08.407Z,8.16
2017-12-23T07:04:33.952Z,8.15
2017-12-23T07:04:59.529Z,8.16
2017-12-23T07:05:24.978Z,8.09
2017-12-23T07:05:50.461Z,8.18
2017-12-23T07:06:15.955Z,8.15
2017-12-23T07:06:41.438Z,8.18
2017-12-23T07:07:06.959Z,8.26
2017-12-23T07:07:32.595Z,8.15
2017-12-23T07:07:58.107Z,8.26
2017-12-23T07:08:23.633Z,8.13
2017-12-23T07:08:49.249Z,8.19
2017-12-23T07:09:14.710Z,8.18
2017-12-23T07:09:40.249Z,8.18
2017-12-23T07:10:05.705Z,8.18
2017-12-23T07:10:31.238Z,8.15
2017-12-23T07:10:56.715Z,8.26
2017-12-23T07:11:22.189Z,8.06
2017-12-23T07:11:47.694Z,8.15
2017-12-23T07:12:13.187Z,8.19
2017-12-23T07:12:38.741Z,8.2
2017-12-23T07:13:04.159Z,8.2
2017-12-23T07:13:29.669Z,8.26
2017-12-23T07:13:55.146Z,8.19
2017-12-23T07:14:20.631Z,8.23
2017-12-23T07:14:46.126Z,8.06
2017-12-23T07:15:11.672Z,8.09
2017-12-23T07:15:37.147Z,8.15
2017-12-23T07:16:02.732Z,8.15
2017-12-23T07:16:28.211Z,8.09
2017-12-23T07:16:53.695Z,8.24
2017-12-23T07:17:19.162Z,8.15
2017-12-23T07:17:44.699Z,8.13
2017-12-23T07:18:10.218Z,8.19
2017-12-23T07:18:35.773Z,8.19
2017-12-23T07:19:01.251Z,8.09
2017-12-23T07:19:26.753Z,8.1
2017-12-23T07:19:52.194Z,8.12
2017-12-23T07:20:17.698Z,8.08
2017-12-23T07:20:43.220Z,8.12
2017-12-23T07:21:08.740Z,8.09
2017-12-23T07:21:34.289Z,8.09
2017-12-23T07:21:59.829Z,8.05
2017-12-23T07:22:25.369Z,8.16
2017-12-23T07:22:50.857Z,8.13
2017-12-23T07:23:16.328Z,8.13
2017-12-23T07:23:41.836Z,8.1
2017-12-23T07:24:07.345Z,8.19
2017-12-23T07:24:32.880Z,8.13
2017-12-23T07:24:58.365Z,8.13
2017-12-23T07:25:23.835Z,8.12
2017-12-23T07:25:49.376Z,8.2
2017-12-23T07:26:14.840Z,8.16
2017-12-23T07:26:40.345Z,8.13
2017-12-23T07:27:05.856Z,8.1
2017-12-23T07:27:31.352Z,8.16
2017-12-23T07:27:56.813Z,8.1
2017-12-23T07:28:22.344Z,8.19
2017-12-23T07:28:47.812Z,8.15
2017-12-23T07:29:51.437Z,8.12
2017-12-23T07:30:16.944Z,8.15
2017-12-23T07:30:42.432Z,8.09
2017-12-23T07:31:07.958Z,8.13
2017-12-23T07:31:33.393Z,8.1
2017-12-23T07:32:21.681Z,8.2
2017-12-23T07:32:47.169Z,8.06
2017-12-23T07:33:12.686Z,8.15
2017-12-23T07:33:38.203Z,8.19
2017-12-23T07:34:03.699Z,8.23
2017-12-23T07:34:29.264Z,8.16
2017-12-23T07:34:54.753Z,8.13
2017-12-23T07:35:20.255Z,8.15
2017-12-23T07:35:45.745Z,8.23
2017-12-23T07:36:11.244Z,8.2
2017-12-23T07:36:36.735Z,8.24
2017-12-23T07:37:02.226Z,8.16
2017-12-23T07:37:27.706Z,8.16
2017-12-23T07:37:53.217Z,8.2
2017-12-23T07:38:18.745Z,8.24
2017-12-23T07:38:44.223Z,8.23
2017-12-23T07:39:09.729Z,8.23
2017-12-23T07:39:35.224Z,8.19
2017-12-23T07:40:00.737Z,8.18
2017-12-23T07:40:26.245Z,8.16
2017-12-23T07:40:51.728Z,8.19
2017-12-23T07:41:17.244Z,8.23
2017-12-23T07:41:42.761Z,8.23
2017-12-23T07:42:08.278Z,8.2
2017-12-23T07:42:33.786Z,8.16
2017-12-23T07:42:59.327Z,8.19
2017-12-23T07:43:24.773Z,8.18
2017-12-23T07:43:50.290Z,8.23
2017-12-23T07:44:15.802Z,8.2
2017-12-23T07:44:41.297Z,8.23
2017-12-23T07:45:06.827Z,8.26
2017-12-23T07:45:32.310Z,8.24
2017-12-23T07:45:57.899Z,8.18
2017-12-23T07:46:23.392Z,8.23
2017-12-23T07:46:48.931Z,8.23
2017-12-23T07:47:14.427Z,8.2
2017-12-23T07:47:39.931Z,8.28
2017-12-23T07:48:05.514Z,8.28
2017-12-23T07:48:30.977Z,8.23
2017-12-23T07:48:56.474Z,8.2
2017-12-23T07:49:22.013Z,8.28
2017-12-23T07:49:47.481Z,8.34
2017-12-23T07:50:35.783Z,8.3
2017-12-23T07:51:01.281Z,8.34
2017-12-23T07:51:26.774Z,8.45
2017-12-23T07:51:52.285Z,8.33
2017-12-23T07:52:17.783Z,8.34
2017-12-23T07:52:43.343Z,8.33
2017-12-23T07:53:08.834Z,8.34
2017-12-23T07:53:34.341Z,8.3
2017-12-23T07:53:59.853Z,8.33
2017-12-23T07:54:25.354Z,8.44
2017-12-23T07:54:50.862Z,8.46
2017-12-23T07:55:16.380Z,8.51
2017-12-23T07:55:41.906Z,8.46
2017-12-23T07:56:07.356Z,8.46
2017-12-23T07:56:32.854Z,8.45
2017-12-23T07:56:58.393Z,8.51
2017-12-23T07:57:23.918Z,8.38
2017-12-23T07:57:49.424Z,8.49
2017-12-23T07:58:14.942Z,8.38
2017-12-23T07:58:40.431Z,8.51
2017-12-23T07:59:05.970Z,8.42
2017-12-23T07:59:31.442Z,8.46
2017-12-23T07:59:56.940Z,8.42
2017-12-23T08:00:22.403Z,8.44
2017-12-23T08:00:47.878Z,8.45
2017-12-23T08:01:13.387Z,8.42
2017-12-23T08:01:38.894Z,8.45
2017-12-23T08:02:04.361Z,8.48
2017-12-23T08:02:29.832Z,8.52
2017-12-23T08:02:55.306Z,8.42
2017-12-23T08:03:20.809Z,8.48
2017-12-23T08:03:46.305Z,8.45
2017-12-23T08:04:11.850Z,8.48
2017-12-23T08:04:37.331Z,8.41
2017-12-23T08:05:02.863Z,8.51
2017-12-23T08:05:28.330Z,8.41
2017-12-23T08:05:53.787Z,8.37
2017-12-23T08:06:19.276Z,8.37
2017-12-23T08:06:44.779Z,8.33
2017-12-23T08:07:10.240Z,8.34
2017-12-23T08:07:35.774Z,8.37
2017-12-23T08:08:01.260Z,8.38
2017-12-23T08:08:26.785Z,8.45
2017-12-23T08:08:52.301Z,8.42
2017-12-23T08:09:17.804Z,8.37
2017-12-23T08:09:43.316Z,8.41
2017-12-23T08:10:08.858Z,8.31
2017-12-23T08:10:34.357Z,8.42
2017-12-23T08:10:59.852Z,8.34
2017-12-23T08:11:25.331Z,8.26
2017-12-23T08:11:50.798Z,8.3
2017-12-23T08:12:16.304Z,8.33
2017-12-23T08:12:41.793Z,8.3
2017-12-23T08:13:07.296Z,8.3
2017-12-23T08:13:32.795Z,8.42
2017-12-23T08:13:58.325Z,8.33
2017-12-23T08:14:23.820Z,8.36
2017-12-23T08:14:49.288Z,8.36
2017-12-23T08:15:14.778Z,8.34
2017-12-23T08:15:40.225Z,8.31
2017-12-23T08:16:05.729Z,8.34
2017-12-23T08:16:31.185Z,8.34
2017-12-23T08:16:56.783Z,8.36
2017-12-23T08:17:22.263Z,8.36
2017-12-23T08:17:47.779Z,8.33
2017-12-23T08:18:13.266Z,8.36
2017-12-23T08:18:38.761Z,8.38
2017-12-23T08:19:04.263Z,8.34
2017-12-23T08:19:29.807Z,8.34
2017-12-23T08:19:55.289Z,8.36
2017-12-23T08:20:20.724Z,8.33
2017-12-23T08:20:46.242Z,8.33
2017-12-23T08:21:11.708Z,8.31
2017-12-23T08:21:37.208Z,8.36
2017-12-23T08:22:02.708Z,8.3
2017-12-23T08:22:28.236Z,8.3
2017-12-23T08:22:53.745Z,8.33
2017-12-23T08:23:19.301Z,8.37
2017-12-23T08:23:44.735Z,8.33
2017-12-23T08:24:10.231Z,8.42
2017-12-23T08:24:35.710Z,8.31
2017-12-23T08:25:01.193Z,8.31
2017-12-23T08:25:26.733Z,8.33
2017-12-23T08:25:52.231Z,8.33
2017-12-23T08:26:17.730Z,8.34
2017-12-23T08:26:43.238Z,8.33
2017-12-23T08:27:08.735Z,8.34
2017-12-23T08:27:34.234Z,8.37
2017-12-23T08:27:59.745Z,8.34
2017-12-23T08:28:25.247Z,8.31
2017-12-23T08:28:50.766Z,8.34
2017-12-23T08:29:16.253Z,8.31
2017-12-23T08:29:41.744Z,8.31
2017-12-23T08:30:07.267Z,8.31
2017-12-23T08:30:32.759Z,8.36
2017-12-23T08:30:58.247Z,8.33
2017-12-23T08:31:23.750Z,8.31
2017-12-23T08:31:49.255Z,8.36
2017-12-23T08:32:14.775Z,8.33
2017-12-23T08:32:40.250Z,8.33
2017-12-23T08:33:28.058Z,8.38
2017-12-23T08:33:53.554Z,8.37
2017-12-23T08:34:19.059Z,8.33
2017-12-23T08:34:44.539Z,8.33
2017-12-23T08:35:10.075Z,8.31
2017-12-23T08:35:35.569Z,8.33
2017-12-23T08:36:34.089Z,8.36
2017-12-23T08:36:59.617Z,8.34
2017-12-23T08:37:47.982Z,8.36
2017-12-23T08:38:13.479Z,8.38
2017-12-23T08:38:38.987Z,8.36
2017-12-23T08:39:04.446Z,8.34
2017-12-23T08:39:30.033Z,8.44
2017-12-23T08:39:55.533Z,8.36
2017-12-23T08:41:04.201Z,8.34
2017-12-23T08:41:29.683Z,8.3
2017-12-23T08:41:55.208Z,8.33
2017-12-23T08:42:20.675Z,8.36
2017-12-23T08:42:46.151Z,8.36
2017-12-23T08:43:11.651Z,8.38
2017-12-23T08:43:37.122Z,8.49
2017-12-23T08:44:02.653Z,8.36
2017-12-23T08:44:28.204Z,8.38
2017-12-23T08:44:53.720Z,8.36
2017-12-23T08:45:19.213Z,8.38
2017-12-23T08:45:44.719Z,8.44
2017-12-23T08:46:10.187Z,8.44
2017-12-23T08:46:35.667Z,8.38
2017-12-23T08:47:01.177Z,8.42
2017-12-23T08:47:26.630Z,8.37
2017-12-23T08:47:52.128Z,8.44
2017-12-23T08:48:17.609Z,8.44
2017-12-23T08:48:43.069Z,8.49
2017-12-23T08:49:08.562Z,8.37
2017-12-23T08:49:34.050Z,8.45
2017-12-23T08:49:59.584Z,8.41
2017-12-23T08:50:25.105Z,8.48
2017-12-23T08:50:50.607Z,8.44
2017-12-23T08:51:16.071Z,8.41
2017-12-23T08:52:24.968Z,8.42
2017-12-23T08:52:50.461Z,8.38
2017-12-23T08:53:15.960Z,8.48
2017-12-23T08:53:41.474Z,8.48
2017-12-23T08:54:06.986Z,8.44
2017-12-23T08:54:32.488Z,8.45
2017-12-23T08:54:57.971Z,8.45
2017-12-23T08:55:23.442Z,8.49
2017-12-23T08:55:48.947Z,8.45
2017-12-23T08:56:14.434Z,8.48
2017-12-23T08:56:39.926Z,8.51
2017-12-23T08:57:05.414Z,8.41
2017-12-23T08:57:30.924Z,8.51
2017-12-23T08:57:56.436Z,8.41
2017-12-23T08:58:21.914Z,8.41
2017-12-23T08:58:47.394Z,8.48
2017-12-23T08:59:12.897Z,8.45
2017-12-23T08:59:38.385Z,8.41
2017-12-23T09:00:03.896Z,8.48
2017-12-23T09:00:29.350Z,8.44
2017-12-23T09:00:54.851Z,8.48
2017-12-23T09:01:20.360Z,8.49
2017-12-23T09:01:45.818Z,8.44
2017-12-23T09:02:11.314Z,8.52
2017-12-23T09:02:36.795Z,8.45
2017-12-23T09:03:02.292Z,8.42
2017-12-23T09:03:27.792Z,8.46
2017-12-23T09:03:53.332Z,8.42
2017-12-23T09:04:18.780Z,8.44
2017-12-23T09:05:17.387Z,8.53
2017-12-23T09:05:42.953Z,8.48
2017-12-23T09:06:08.445Z,8.46
2017-12-23T09:06:33.972Z,8.52
2017-12-23T09:06:59.477Z,8.41
2017-12-23T09:08:03.036Z,8.55
2017-12-23T09:08:28.542Z,8.49
2017-12-23T09:08:54.040Z,8.51
2017-12-23T09:09:19.533Z,8.48
2017-12-23T09:09:45.060Z,8.53
2017-12-23T09:10:10.591Z,8.52
2017-12-23T09:10:36.056Z,8.53
2017-12-23T09:11:01.512Z,8.53
2017-12-23T09:11:27.012Z,8.52
2017-12-23T09:11:52.450Z,8.51
2017-12-23T09:12:17.930Z,8.55
2017-12-23T09:12:43.467Z,8.52
2017-12-23T09:13:52.259Z,8.49
2017-12-23T09:14:17.765Z,8.51
2017-12-23T09:14:43.262Z,8.52
2017-12-23T09:15:08.719Z,8.52
2017-12-23T09:15:34.206Z,8.52
2017-12-23T09:15:59.693Z,8.52
2017-12-23T09:16:25.183Z,8.49
2017-12-23T09:16:50.715Z,8.58
2017-12-23T09:17:16.216Z,8.6
2017-12-23T09:17:41.699Z,8.52
2017-12-23T09:18:07.191Z,8.48
2017-12-23T09:18:32.686Z,8.52
2017-12-23T09:18:58.172Z,8.58
2017-12-23T09:19:23.706Z,8.52
2017-12-23T09:19:49.181Z,8.48
2017-12-23T09:20:14.678Z,8.49
2017-12-23T09:20:40.168Z,8.55
2017-12-23T09:21:05.651Z,8.53
2017-12-23T09:21:31.121Z,8.49
2017-12-23T09:21:56.651Z,8.52
2017-12-23T09:22:22.139Z,8.56
2017-12-23T09:22:47.613Z,8.56
2017-12-23T09:23:13.207Z,8.56
2017-12-23T09:23:38.593Z,8.56
2017-12-23T09:24:04.067Z,8.61
2017-12-23T09:24:29.566Z,8.51
2017-12-23T09:24:55.045Z,8.61
2017-12-23T09:25:20.544Z,8.67
2017-12-23T09:25:46.042Z,8.56
2017-12-23T09:26:11.563Z,8.58
2017-12-23T09:26:37.017Z,8.55
2017-12-23T09:27:02.514Z,8.63
2017-12-23T09:27:28.010Z,8.67
2017-12-23T09:27:53.517Z,8.61
2017-12-23T09:28:19.032Z,8.67
2017-12-23T09:28:44.509Z,8.52
2017-12-23T09:29:10.045Z,8.67
2017-12-23T09:29:35.508Z,8.53
2017-12-23T09:30:01.057Z,8.66
2017-12-23T09:30:26.497Z,8.66
2017-12-23T09:30:51.983Z,8.66
2017-12-23T09:31:17.522Z,8.63
2017-12-23T09:31:43.028Z,8.64
2017-12-23T09:32:08.534Z,8.67
2017-12-23T09:32:34.035Z,8.64
2017-12-23T09:32:59.564Z,8.63
2017-12-23T09:33:25.073Z,8.6
2017-12-23T09:33:50.556Z,8.64
2017-12-23T09:34:16.076Z,8.6
2017-12-23T09:34:41.544Z,8.6
2017-12-23T09:35:07.068Z,8.58
2017-12-23T09:35:32.534Z,8.58
2017-12-23T09:36:41.247Z,8.7
2017-12-23T09:37:06.782Z,8.7
2017-12-23T09:37:32.247Z,8.61
2017-12-23T09:37:57.739Z,8.58
2017-12-23T09:38:23.201Z,8.73
2017-12-23T09:38:48.690Z,8.71
2017-12-23T09:39:14.163Z,8.7
2017-12-23T09:39:39.666Z,8.73
2017-12-23T09:40:05.158Z,8.66
2017-12-23T09:40:30.692Z,8.73
2017-12-23T09:40:56.180Z,8.71
2017-12-23T09:42:00.343Z,8.71
2017-12-23T09:42:25.817Z,8.71
2017-12-23T09:42:51.301Z,8.67
2017-12-23T09:43:16.799Z,8.69
2017-12-23T09:43:42.280Z,8.71
2017-12-23T09:44:07.765Z,8.73
2017-12-23T09:44:33.252Z,8.74
2017-12-23T09:44:58.711Z,8.73
2017-12-23T09:45:24.195Z,8.74
2017-12-23T09:45:49.675Z,8.71
2017-12-23T09:46:15.140Z,8.74
2017-12-23T09:46:40.648Z,8.71
2017-12-23T09:47:28.944Z,8.74
2017-12-23T09:47:54.422Z,8.73
2017-12-23T09:48:19.912Z,8.78
2017-12-23T09:48:45.382Z,8.73
2017-12-23T09:49:10.879Z,8.76
2017-12-23T09:49:36.363Z,8.74
2017-12-23T09:50:01.872Z,8.73
2017-12-23T09:50:27.414Z,8.78
2017-12-23T09:50:52.915Z,8.74
2017-12-23T09:51:18.396Z,8.71
2017-12-23T09:51:43.932Z,8.78
2017-12-23T09:52:09.450Z,8.78
2017-12-23T09:52:34.928Z,8.81
2017-12-23T09:53:00.399Z,8.74
2017-12-23T09:53:25.975Z,8.74
2017-12-23T09:53:51.391Z,8.69
2017-12-23T09:54:16.898Z,8.69
2017-12-23T09:54:42.424Z,8.74
2017-12-23T09:55:07.913Z,8.74
2017-12-23T09:55:33.412Z,8.78
2017-12-23T09:55:58.927Z,8.73
2017-12-23T09:56:24.447Z,8.87
2017-12-23T09:56:49.918Z,8.74
2017-12-23T09:57:15.407Z,8.74
2017-12-23T09:57:40.951Z,8.76
2017-12-23T09:58:06.392Z,8.7
2017-12-23T09:58:31.879Z,8.85
2017-12-23T09:58:57.399Z,8.7
2017-12-23T09:59:22.896Z,8.79
2017-12-23T09:59:48.387Z,8.76
2017-12-23T10:00:13.886Z,8.74
2017-12-23T10:00:39.367Z,8.73
2017-12-23T10:01:04.864Z,8.71
2017-12-23T10:01:30.376Z,8.82
2017-12-23T10:01:55.851Z,8.79
2017-12-23T10:02:21.385Z,8.76
2017-12-23T10:02:46.814Z,8.81
2017-12-23T10:03:12.357Z,8.79
2017-12-23T10:03:37.835Z,8.85
2017-12-23T10:04:36.371Z,8.71
2017-12-23T10:05:01.898Z,8.84
2017-12-23T10:05:27.471Z,8.81
2017-12-23T10:05:52.821Z,8.85
2017-12-23T10:06:18.306Z,8.82
2017-12-23T10:06:43.785Z,8.74
2017-12-23T10:07:09.308Z,8.81
2017-12-23T10:07:34.765Z,8.79
2017-12-23T10:08:00.277Z,8.81
2017-12-23T10:08:25.759Z,8.7
2017-12-23T10:08:51.270Z,8.79
2017-12-23T10:09:16.817Z,8.81
2017-12-23T10:09:42.252Z,8.76
2017-12-23T10:10:07.765Z,8.81
2017-12-23T10:10:33.275Z,8.78
2017-12-23T10:10:58.838Z,8.79
2017-12-23T10:11:24.312Z,8.84
2017-12-23T10:11:49.822Z,8.79
2017-12-23T10:12:15.284Z,8.82
2017-12-23T10:12:40.786Z,8.76
2017-12-23T10:13:06.249Z,8.82
2017-12-23T10:13:31.714Z,8.67
2017-12-23T10:13:57.208Z,8.82
2017-12-23T10:14:22.664Z,8.78
2017-12-23T10:14:48.132Z,8.79
2017-12-23T10:15:13.689Z,8.85
2017-12-23T10:15:39.155Z,8.74
2017-12-23T10:16:04.673Z,8.82
2017-12-23T10:16:30.202Z,8.78
2017-12-23T10:16:55.662Z,8.78
2017-12-23T10:17:21.183Z,8.81
2017-12-23T10:17:46.662Z,8.74
2017-12-23T10:18:40.090Z,8.71
2017-12-23T10:19:05.819Z,8.81
2017-12-23T10:19:31.066Z,8.79
2017-12-23T10:19:56.566Z,8.81
2017-12-23T10:20:22.039Z,8.79
2017-12-23T10:20:47.527Z,8.84
2017-12-23T10:21:12.984Z,8.74
2017-12-23T10:21:38.476Z,8.73
2017-12-23T10:22:03.965Z,8.78
2017-12-23T10:22:29.489Z,8.81
2017-12-23T10:22:54.969Z,8.78
2017-12-23T10:23:20.483Z,8.85
2017-12-23T10:23:45.998Z,8.82
2017-12-23T10:24:11.474Z,8.81
2017-12-23T10:24:36.945Z,8.84
2017-12-23T10:25:02.447Z,8.79
2017-12-23T10:25:27.945Z,8.79
2017-12-23T10:25:53.471Z,8.74
2017-12-23T10:26:18.989Z,8.82
2017-12-23T10:26:44.538Z,8.85
2017-12-23T10:27:09.983Z,8.81
2017-12-23T10:27:35.521Z,8.76
2017-12-23T10:28:01.029Z,8.78
2017-12-23T10:28:26.506Z,8.84
2017-12-23T10:28:52.030Z,8.87
2017-12-23T10:29:17.524Z,8.82
2017-12-23T10:29:43.043Z,8.82
2017-12-23T10:30:08.569Z,8.78
2017-12-23T10:30:34.288Z,8.84
2017-12-23T10:30:59.714Z,8.85
2017-12-23T10:31:25.190Z,8.78
2017-12-23T10:31:50.668Z,8.82
2017-12-23T10:32:16.207Z,8.89
2017-12-23T10:32:41.683Z,8.79
2017-12-23T10:33:07.152Z,8.84
2017-12-23T10:33:32.669Z,8.79
2017-12-23T10:33:58.169Z,8.79
2017-12-23T10:34:23.657Z,8.85
2017-12-23T10:34:49.162Z,8.79
2017-12-23T10:35:14.796Z,8.89
2017-12-23T10:35:40.262Z,8.81
2017-12-23T10:36:05.747Z,8.88
2017-12-23T10:36:31.233Z,8.81
2017-12-23T10:36:56.739Z,8.88
2017-12-23T10:37:22.210Z,8.81
2017-12-23T10:37:47.699Z,8.81
2017-12-23T10:38:13.201Z,8.92
2017-12-23T10:38:38.693Z,8.81
2017-12-23T10:39:04.181Z,8.87
2017-12-23T10:39:29.705Z,8.94
2017-12-23T10:39:55.270Z,8.89
2017-12-23T10:40:20.747Z,8.89
2017-12-23T10:40:46.236Z,8.92
2017-12-23T10:41:11.717Z,8.85
2017-12-23T10:41:37.229Z,8.84
2017-12-23T10:42:02.753Z,8.88
2017-12-23T10:42:28.269Z,8.89
2017-12-23T10:42:53.746Z,8.87
2017-12-23T10:43:19.244Z,8.82
2017-12-23T10:43:44.725Z,8.89
2017-12-23T10:44:10.268Z,8.94
2017-12-23T10:44:35.714Z,8.74
2017-12-23T10:45:01.255Z,8.89
2017-12-23T10:45:26.750Z,8.85
2017-12-23T10:45:52.307Z,8.87
2017-12-23T10:46:17.774Z,8.87
2017-12-23T10:46:43.252Z,8.88
2017-12-23T10:47:08.737Z,8.89
2017-12-23T10:47:34.331Z,8.88
2017-12-23T10:47:59.800Z,8.82
2017-12-23T10:48:25.285Z,8.84
2017-12-23T10:48:50.786Z,8.94
2017-12-23T10:49:16.279Z,8.89
2017-12-23T10:49:41.764Z,8.87
2017-12-23T10:50:07.285Z,8.82
2017-12-23T10:50:32.775Z,8.88
2017-12-23T10:50:58.271Z,8.95
2017-12-23T10:51:23.791Z,8.79
2017-12-23T10:51:49.293Z,8.91
2017-12-23T10:52:14.747Z,8.95
2017-12-23T10:52:40.247Z,8.92
2017-12-23T10:53:05.726Z,8.94
2017-12-23T10:53:31.193Z,8.87
2017-12-23T10:53:56.702Z,8.91
2017-12-23T10:54:22.173Z,8.82
2017-12-23T10:54:47.650Z,8.92
2017-12-23T10:55:13.143Z,8.84
2017-12-23T10:55:38.688Z,8.88
2017-12-23T10:56:04.204Z,8.88